createdAt,value
2019-05-11T00:00:22.451Z,80.32
2019-05-11T00:05:25.041Z,80.19
2019-05-11T00:10:28.247Z,80.39
2019-05-11T00:15:31.766Z,80.65
2019-05-11T00:20:34.950Z,80.12
2019-05-11T00:25:37.865Z,80.03
2019-05-11T00:30:41.088Z,80.17
2019-05-11T00:35:43.983Z,79.90
2019-05-11T00:40:47.106Z,80.19
2019-05-11T00:45:50.416Z,80.12
2019-05-11T00:50:53.729Z,80.01
2019-05-11T00:55:56.395Z,80.45
2019-05-11T01:00:59.934Z,80.93
2019-05-11T01:06:03.082Z,80.29
2019-05-11T01:11:06.141Z,80.45
2019-05-11T01:16:09.339Z,80.80
2019-05-11T01:21:12.274Z,80.32
2019-05-11T01:26:15.206Z,79.48
2019-05-11T01:31:18.052Z,79.79
2019-05-11T01:36:21.369Z,79.86
2019-05-11T01:41:24.590Z,79.63
2019-05-11T01:46:28.083Z,79.71
2019-05-11T01:51:31.389Z,80.63
2019-05-11T01:56:34.680Z,80.64
2019-05-11T02:01:37.940Z,80.10
2019-05-11T02:06:41.157Z,79.62
2019-05-11T02:11:46.460Z,79.66
2019-05-11T02:16:49.780Z,79.93
2019-05-11T02:21:53.007Z,80.54
2019-05-11T02:26:57.272Z,81.01
2019-05-11T02:32:00.476Z,81.43
2019-05-11T02:37:03.179Z,81.30
2019-05-11T02:42:06.762Z,81.21
2019-05-11T02:47:09.987Z,80.23
2019-05-11T02:52:13.939Z,80.49
2019-05-11T02:57:17.347Z,80.68
2019-05-11T03:02:20.821Z,80.96
2019-05-11T03:07:24.142Z,81.25
2019-05-11T03:12:27.644Z,81.23
2019-05-11T03:17:32.390Z,83.13
2019-05-11T03:22:34.943Z,81.32
2019-05-11T03:27:37.837Z,80.12
2019-05-11T03:32:41.128Z,79.60
2019-05-11T03:37:44.664Z,79.77
2019-05-11T03:42:47.614Z,80.21
2019-05-11T03:47:51.151Z,80.00
2019-05-11T03:52:54.389Z,80.49
2019-05-11T03:57:57.248Z,79.92
2019-05-11T04:03:00.406Z,80.08
2019-05-11T04:08:04.217Z,80.22
2019-05-11T04:13:07.382Z,79.77
2019-05-11T04:18:10.455Z,79.85
2019-05-11T04:23:14.134Z,80.42
2019-05-11T04:28:17.327Z,80.20
2019-05-11T04:33:20.554Z,80.84
2019-05-11T04:38:23.132Z,82.07
2019-05-11T04:43:26.735Z,83.19
2019-05-11T04:48:30.921Z,82.42
2019-05-11T04:53:34.046Z,81.30
2019-05-11T04:58:37.244Z,80.83
2019-05-11T05:03:41.300Z,81.08
2019-05-11T05:08:44.791Z,81.50
2019-05-11T05:13:47.458Z,83.70
2019-05-11T05:18:50.702Z,83.39
2019-05-11T05:23:54.008Z,81.81
2019-05-11T05:28:56.941Z,80.89
2019-05-11T05:34:01.490Z,81.12
2019-05-11T05:39:08.877Z,81.17
2019-05-11T05:44:11.872Z,80.62
2019-05-11T05:49:15.150Z,79.58
2019-05-11T05:54:17.698Z,78.64
2019-05-11T05:59:20.893Z,76.84
2019-05-11T06:04:24.921Z,75.55
2019-05-11T06:09:28.115Z,74.65
2019-05-11T06:14:30.973Z,74.74
2019-05-11T06:19:34.724Z,73.67
2019-05-11T06:24:37.654Z,72.28
2019-05-11T06:29:40.545Z,71.54
2019-05-11T06:34:44.483Z,70.08
2019-05-11T06:39:47.387Z,69.12
2019-05-11T06:44:50.596Z,66.48
2019-05-11T06:49:54.217Z,64.78
2019-05-11T06:54:57.427Z,67.19
2019-05-11T07:00:00.633Z,67.24
2019-05-11T07:05:03.747Z,66.77
2019-05-11T07:10:07.155Z,63.40
2019-05-11T07:15:10.810Z,63.47
2019-05-11T07:20:14.080Z,61.88
2019-05-11T07:25:16.924Z,60.82
2019-05-11T07:30:19.865Z,61.66
2019-05-11T07:35:23.087Z,62.55
2019-05-11T07:40:27.927Z,63.03
2019-05-11T07:45:30.855Z,62.92
2019-05-11T07:50:34.152Z,62.63
2019-05-11T07:55:38.489Z,60.13
2019-05-11T08:00:41.430Z,60.38
2019-05-11T08:05:44.599Z,57.55
2019-05-11T08:10:48.431Z,57.61
2019-05-11T08:15:51.126Z,55.48
2019-05-11T08:20:54.322Z,56.65
2019-05-11T08:25:58.290Z,55.66
2019-05-11T08:31:01.213Z,57.67
2019-05-11T08:36:05.610Z,55.88
2019-05-11T08:41:08.530Z,51.91
2019-05-11T08:46:11.064Z,53.89
2019-05-11T08:51:14.336Z,52.89
2019-05-11T08:56:18.889Z,55.38
2019-05-11T09:01:22.862Z,55.20
2019-05-11T09:06:28.242Z,54.23
2019-05-11T09:11:31.102Z,55.66
2019-05-11T09:16:34.889Z,54.87
2019-05-11T09:21:40.744Z,52.22
2019-05-11T09:26:43.949Z,53.26
2019-05-11T09:31:48.702Z,55.28
2019-05-11T09:36:51.849Z,51.88
2019-05-11T09:41:54.990Z,52.36
2019-05-11T09:47:01.832Z,62.46
2019-05-11T09:52:04.524Z,57.36
2019-05-11T09:57:10.318Z,53.90
2019-05-11T10:02:17.653Z,54.11
2019-05-11T10:07:20.168Z,52.04
2019-05-11T10:12:23.214Z,53.91
2019-05-11T10:17:28.794Z,51.25
2019-05-11T10:22:31.488Z,50.37
2019-05-11T10:27:34.686Z,51.38
2019-05-11T10:32:40.843Z,52.91
2019-05-11T10:37:43.553Z,52.13
2019-05-11T10:42:48.389Z,52.24
2019-05-11T10:47:55.777Z,51.23
2019-05-11T10:52:59.031Z,49.64
2019-05-11T10:58:02.538Z,48.59
2019-05-11T11:03:08.286Z,53.26
2019-05-11T11:08:10.776Z,50.44
2019-05-11T11:13:14.096Z,48.96
2019-05-11T11:18:18.849Z,50.89
2019-05-11T11:23:22.667Z,53.20
2019-05-11T11:28:27.879Z,51.83
2019-05-11T11:33:30.833Z,49.10
2019-05-11T11:38:33.427Z,48.01
2019-05-11T11:43:37.736Z,47.99
2019-05-11T11:48:40.579Z,49.09
2019-05-11T11:53:44.091Z,46.34
2019-05-11T11:58:48.804Z,48.20
2019-05-11T12:03:52.321Z,46.88
2019-05-11T12:08:58.517Z,45.48
2019-05-11T12:14:01.192Z,47.01
2019-05-11T12:19:05.366Z,46.33
2019-05-11T12:24:09.050Z,46.73
2019-05-11T12:29:12.615Z,42.73
2019-05-11T12:34:17.950Z,43.15
2019-05-11T12:39:21.317Z,43.02
2019-05-11T12:44:24.855Z,42.08
2019-05-11T12:49:28.877Z,41.98
2019-05-11T12:54:33.988Z,41.18
2019-05-11T12:59:39.967Z,42.81
2019-05-11T13:04:43.403Z,42.03
2019-05-11T13:09:48.422Z,42.28
2019-05-11T13:14:51.388Z,40.37
2019-05-11T13:19:54.700Z,41.51
2019-05-11T13:24:58.846Z,43.78
2019-05-11T13:30:02.356Z,40.17
2019-05-11T13:35:05.917Z,39.15
2019-05-11T13:40:09.751Z,40.70
2019-05-11T13:45:13.013Z,40.30
2019-05-11T13:50:17.760Z,41.95
2019-05-11T13:55:20.861Z,38.66
2019-05-11T14:00:23.761Z,38.58
2019-05-11T14:05:28.476Z,40.43
2019-05-11T14:10:31.952Z,38.50
2019-05-11T14:15:35.093Z,37.98
2019-05-11T14:20:37.968Z,37.16
2019-05-11T14:25:41.407Z,37.21
2019-05-11T14:30:44.576Z,37.27
2019-05-11T14:35:48.953Z,36.65
2019-05-11T14:40:52.343Z,35.75
2019-05-11T14:45:55.215Z,35.97
2019-05-11T14:50:59.351Z,34.56
2019-05-11T14:56:02.455Z,36.18
2019-05-11T15:01:05.356Z,36.35
2019-05-11T15:06:08.911Z,36.55
2019-05-11T15:11:11.898Z,35.12
2019-05-11T15:16:18.475Z,35.16
2019-05-11T15:21:21.383Z,36.86
2019-05-11T15:26:24.576Z,34.39
2019-05-11T15:31:28.087Z,35.27
2019-05-11T15:36:30.682Z,34.69
2019-05-11T15:41:33.837Z,34.56
2019-05-11T15:46:38.765Z,34.08
2019-05-11T15:51:42.106Z,33.15
2019-05-11T15:56:45.680Z,33.64
2019-05-11T16:01:48.894Z,34.37
2019-05-11T16:06:52.441Z,34.51
2019-05-11T16:11:55.819Z,34.53
2019-05-11T16:16:58.731Z,34.33
2019-05-11T16:22:03.054Z,34.66
2019-05-11T16:27:08.351Z,35.52
2019-05-11T16:32:11.746Z,35.18
2019-05-11T16:37:14.974Z,35.05
2019-05-11T16:42:18.049Z,35.39
2019-05-11T16:47:21.270Z,36.32
2019-05-11T16:52:24.507Z,36.47
2019-05-11T16:57:27.474Z,37.70
2019-05-11T17:02:30.637Z,37.63
2019-05-11T17:07:33.913Z,37.98
2019-05-11T17:12:38.536Z,38.86
2019-05-11T17:17:42.038Z,37.19
2019-05-11T17:22:47.499Z,39.00
2019-05-11T17:27:50.184Z,38.87
2019-05-11T17:32:53.790Z,39.76
2019-05-11T17:37:57.054Z,39.84
2019-05-11T17:43:00.556Z,41.11
2019-05-11T17:48:03.463Z,42.04
2019-05-11T17:53:06.669Z,44.04
2019-05-11T17:58:09.993Z,43.58
2019-05-11T18:03:13.632Z,45.55
2019-05-11T18:08:18.729Z,43.83
2019-05-11T18:13:22.444Z,43.93
2019-05-11T18:18:25.721Z,45.17
2019-05-11T18:23:29.184Z,44.57
2019-05-11T18:28:32.209Z,45.37
2019-05-11T18:33:38.018Z,45.69
2019-05-11T18:38:40.960Z,46.20
2019-05-11T18:43:44.717Z,46.63
2019-05-11T18:48:48.693Z,46.22
2019-05-11T18:53:52.259Z,46.71
2019-05-11T18:58:55.472Z,46.53
2019-05-11T19:04:00.116Z,46.76
2019-05-11T19:09:06.149Z,46.78
2019-05-11T19:14:09.408Z,47.12
2019-05-11T19:19:12.712Z,47.34
2019-05-11T19:24:15.706Z,47.42
2019-05-11T19:29:21.181Z,48.11
2019-05-11T19:34:24.482Z,48.12
2019-05-11T19:39:28.147Z,48.40
2019-05-11T19:44:31.085Z,48.04
2019-05-11T19:49:34.093Z,48.43
2019-05-11T19:54:38.279Z,49.07
2019-05-11T19:59:41.364Z,49.52
2019-05-11T20:04:44.676Z,50.18
2019-05-11T20:09:47.575Z,50.24
2019-05-11T20:14:51.062Z,50.61
2019-05-11T20:19:54.779Z,51.07
2019-05-11T20:24:58.137Z,52.19
2019-05-11T20:30:04.293Z,52.62
2019-05-11T20:35:08.562Z,53.04
2019-05-11T20:40:12.301Z,53.59
2019-05-11T20:45:14.765Z,53.91
2019-05-11T20:50:18.691Z,54.46
2019-05-11T20:55:22.193Z,54.35
2019-05-11T21:00:27.882Z,54.79
2019-05-11T21:05:30.989Z,55.30
2019-05-11T21:10:34.298Z,55.82
2019-05-11T21:15:38.444Z,56.67
2019-05-11T21:20:41.720Z,56.41
2019-05-11T21:25:45.031Z,56.76
2019-05-11T21:30:48.240Z,56.77
2019-05-11T21:35:51.545Z,57.73
2019-05-11T21:40:57.943Z,58.46
2019-05-11T21:46:01.500Z,59.11
2019-05-11T21:51:04.324Z,59.55
2019-05-11T21:56:08.235Z,60.82
2019-05-11T22:01:12.086Z,61.23
2019-05-11T22:06:15.393Z,62.41
2019-05-11T22:11:18.654Z,63.24
2019-05-11T22:16:22.252Z,63.50
2019-05-11T22:21:27.833Z,64.15
2019-05-11T22:26:30.619Z,64.77
2019-05-11T22:31:33.191Z,65.40
2019-05-11T22:36:38.080Z,65.68
2019-05-11T22:41:40.451Z,65.64
2019-05-11T22:46:43.736Z,66.23
2019-05-11T22:51:46.664Z,66.47
2019-05-11T22:56:49.883Z,67.04
2019-05-11T23:01:52.802Z,67.27
2019-05-11T23:06:58.343Z,67.32
2019-05-11T23:12:01.226Z,68.56
2019-05-11T23:17:04.862Z,69.15
2019-05-11T23:22:08.405Z,68.62
2019-05-11T23:27:11.277Z,68.98
2019-05-11T23:32:14.241Z,69.23
2019-05-11T23:37:18.390Z,69.57
2019-05-11T23:42:21.589Z,69.59
2019-05-11T23:47:24.837Z,69.66
2019-05-11T23:52:29.532Z,70.35
2019-05-11T23:57:33.352Z,70.91
